sensor_id;sensor_type;location;lat;lon;timestamp;temperature;humidity
16893;DHT22;8563;52.242;9.098;2023-04-06T00:01:36;3.00;94.90
16893;DHT22;8563;52.242;9.098;2023-04-06T00:04:09;3.10;94.90
16893;DHT22;8563;52.242;9.098;2023-04-06T00:06:42;3.10;95.00
16893;DHT22;8563;52.242;9.098;2023-04-06T00:09:15;3.10;95.00
16893;DHT22;8563;52.242;9.098;2023-04-06T00:11:47;3.00;94.90
16893;DHT22;8563;52.242;9.098;2023-04-06T00:14:19;3.10;95.10
16893;DHT22;8563;52.242;9.098;2023-04-06T00:16:51;3.00;95.50
16893;DHT22;8563;52.242;9.098;2023-04-06T00:19:23;3.00;95.50
16893;DHT22;8563;52.242;9.098;2023-04-06T00:21:57;2.90;95.90
16893;DHT22;8563;52.242;9.098;2023-04-06T00:24:30;2.90;96.40
16893;DHT22;8563;52.242;9.098;2023-04-06T00:27:02;2.80;96.40
16893;DHT22;8563;52.242;9.098;2023-04-06T00:29:34;2.80;96.40
16893;DHT22;8563;52.242;9.098;2023-04-06T00:32:07;2.80;96.50
16893;DHT22;8563;52.242;9.098;2023-04-06T00:34:39;2.80;96.40
16893;DHT22;8563;52.242;9.098;2023-04-06T00:37:13;2.80;96.30
16893;DHT22;8563;52.242;9.098;2023-04-06T00:39:45;2.80;96.20
16893;DHT22;8563;52.242;9.098;2023-04-06T00:42:18;2.80;96.10
16893;DHT22;8563;52.242;9.098;2023-04-06T00:44:58;2.80;96.00
16893;DHT22;8563;52.242;9.098;2023-04-06T00:47:31;2.80;96.00
16893;DHT22;8563;52.242;9.098;2023-04-06T00:50:04;2.80;95.90
16893;DHT22;8563;52.242;9.098;2023-04-06T00:52:37;2.80;96.20
16893;DHT22;8563;52.242;9.098;2023-04-06T00:55:12;2.80;96.60
16893;DHT22;8563;52.242;9.098;2023-04-06T00:57:47;2.70;97.20
16893;DHT22;8563;52.242;9.098;2023-04-06T01:00:21;2.60;97.30
16893;DHT22;8563;52.242;9.098;2023-04-06T01:02:58;2.60;97.60
16893;DHT22;8563;52.242;9.098;2023-04-06T01:05:39;2.60;97.80
16893;DHT22;8563;52.242;9.098;2023-04-06T01:08:22;2.50;97.90
16893;DHT22;8563;52.242;9.098;2023-04-06T01:10:59;2.50;98.20
16893;DHT22;8563;52.242;9.098;2023-04-06T01:13:34;2.40;98.30
16893;DHT22;8563;52.242;9.098;2023-04-06T01:16:09;2.40;98.70
16893;DHT22;8563;52.242;9.098;2023-04-06T01:18:52;2.40;99.00
16893;DHT22;8563;52.242;9.098;2023-04-06T01:21:28;2.30;99.20
16893;DHT22;8563;52.242;9.098;2023-04-06T01:24:17;2.30;99.40
16893;DHT22;8563;52.242;9.098;2023-04-06T01:27:06;2.20;99.50
16893;DHT22;8563;52.242;9.098;2023-04-06T01:29:59;2.20;99.20
16893;DHT22;8563;52.242;9.098;2023-04-06T01:32:42;2.20;99.10
16893;DHT22;8563;52.242;9.098;2023-04-06T01:35:18;2.20;98.80
16893;DHT22;8563;52.242;9.098;2023-04-06T01:38:00;2.20;98.60
16893;DHT22;8563;52.242;9.098;2023-04-06T01:40:38;2.20;98.30
16893;DHT22;8563;52.242;9.098;2023-04-06T01:43:10;2.30;98.40
16893;DHT22;8563;52.242;9.098;2023-04-06T01:46:01;2.30;98.10
16893;DHT22;8563;52.242;9.098;2023-04-06T01:48:38;2.30;98.00
16893;DHT22;8563;52.242;9.098;2023-04-06T01:51:23;2.30;97.90
16893;DHT22;8563;52.242;9.098;2023-04-06T01:54:00;2.30;98.00
16893;DHT22;8563;52.242;9.098;2023-04-06T01:56:44;2.40;98.10
16893;DHT22;8563;52.242;9.098;2023-04-06T01:59:36;2.30;98.00
16893;DHT22;8563;52.242;9.098;2023-04-06T02:02:15;2.30;97.60
16893;DHT22;8563;52.242;9.098;2023-04-06T02:04:56;2.40;97.60
16893;DHT22;8563;52.242;9.098;2023-04-06T02:07:28;2.30;98.20
16893;DHT22;8563;52.242;9.098;2023-04-06T02:10:01;2.30;98.60
16893;DHT22;8563;52.242;9.098;2023-04-06T02:12:43;2.20;98.90
16893;DHT22;8563;52.242;9.098;2023-04-06T02:15:19;2.20;99.10
16893;DHT22;8563;52.242;9.098;2023-04-06T02:17:52;2.10;99.10
16893;DHT22;8563;52.242;9.098;2023-04-06T02:20:24;2.10;99.10
16893;DHT22;8563;52.242;9.098;2023-04-06T02:22:58;2.10;99.10
16893;DHT22;8563;52.242;9.098;2023-04-06T02:25:31;2.10;99.30
16893;DHT22;8563;52.242;9.098;2023-04-06T02:28:05;2.10;99.10
16893;DHT22;8563;52.242;9.098;2023-04-06T02:30:38;2.10;99.10
16893;DHT22;8563;52.242;9.098;2023-04-06T02:33:11;2.10;99.40
16893;DHT22;8563;52.242;9.098;2023-04-06T02:35:47;2.00;98.80
16893;DHT22;8563;52.242;9.098;2023-04-06T02:38:19;2.10;98.60
16893;DHT22;8563;52.242;9.098;2023-04-06T02:40:51;2.10;98.40
16893;DHT22;8563;52.242;9.098;2023-04-06T02:43:32;2.10;98.40
16893;DHT22;8563;52.242;9.098;2023-04-06T02:46:30;2.20;98.30
16893;DHT22;8563;52.242;9.098;2023-04-06T02:49:03;2.20;98.20
16893;DHT22;8563;52.242;9.098;2023-04-06T02:51:38;2.20;98.10
16893;DHT22;8563;52.242;9.098;2023-04-06T02:54:21;2.20;98.00
16893;DHT22;8563;52.242;9.098;2023-04-06T02:56:54;2.20;98.20
16893;DHT22;8563;52.242;9.098;2023-04-06T02:59:31;2.20;98.10
16893;DHT22;8563;52.242;9.098;2023-04-06T03:02:24;2.10;98.30
16893;DHT22;8563;52.242;9.098;2023-04-06T03:04:59;2.10;98.40
16893;DHT22;8563;52.242;9.098;2023-04-06T03:07:38;2.10;98.50
16893;DHT22;8563;52.242;9.098;2023-04-06T03:10:14;2.20;98.40
16893;DHT22;8563;52.242;9.098;2023-04-06T03:12:48;2.20;98.40
16893;DHT22;8563;52.242;9.098;2023-04-06T03:15:26;2.10;98.70
16893;DHT22;8563;52.242;9.098;2023-04-06T03:18:07;2.10;99.00
16893;DHT22;8563;52.242;9.098;2023-04-06T03:20:47;2.00;99.20
16893;DHT22;8563;52.242;9.098;2023-04-06T03:23:21;2.00;99.20
16893;DHT22;8563;52.242;9.098;2023-04-06T03:25:57;2.00;99.30
16893;DHT22;8563;52.242;9.098;2023-04-06T03:28:29;1.90;99.30
16893;DHT22;8563;52.242;9.098;2023-04-06T03:31:06;2.00;98.90
16893;DHT22;8563;52.242;9.098;2023-04-06T03:33:57;2.00;98.90
16893;DHT22;8563;52.242;9.098;2023-04-06T03:36:34;2.00;98.70
16893;DHT22;8563;52.242;9.098;2023-04-06T03:39:08;2.00;98.80
16893;DHT22;8563;52.242;9.098;2023-04-06T03:41:44;2.00;98.60
16893;DHT22;8563;52.242;9.098;2023-04-06T03:44:35;2.00;98.60
16893;DHT22;8563;52.242;9.098;2023-04-06T03:47:09;2.10;98.60
16893;DHT22;8563;52.242;9.098;2023-04-06T03:49:42;2.10;98.50
16893;DHT22;8563;52.242;9.098;2023-04-06T03:52:16;2.10;98.40
16893;DHT22;8563;52.242;9.098;2023-04-06T03:54:49;2.10;98.30
16893;DHT22;8563;52.242;9.098;2023-04-06T03:57:21;2.10;98.20
16893;DHT22;8563;52.242;9.098;2023-04-06T03:59:53;2.10;98.30
16893;DHT22;8563;52.242;9.098;2023-04-06T04:02:27;2.10;98.20
16893;DHT22;8563;52.242;9.098;2023-04-06T04:04:59;2.10;98.10
16893;DHT22;8563;52.242;9.098;2023-04-06T04:07:31;2.10;98.10
16893;DHT22;8563;52.242;9.098;2023-04-06T04:10:05;2.20;98.10
16893;DHT22;8563;52.242;9.098;2023-04-06T04:12:37;2.10;98.10
16893;DHT22;8563;52.242;9.098;2023-04-06T04:15:10;2.10;97.90
16893;DHT22;8563;52.242;9.098;2023-04-06T04:17:44;2.10;98.00
16893;DHT22;8563;52.242;9.098;2023-04-06T04:20:19;2.10;98.10
16893;DHT22;8563;52.242;9.098;2023-04-06T04:22:52;2.10;98.00
16893;DHT22;8563;52.242;9.098;2023-04-06T04:25:24;2.10;97.90
16893;DHT22;8563;52.242;9.098;2023-04-06T04:27:57;2.20;97.90
16893;DHT22;8563;52.242;9.098;2023-04-06T04:30:30;2.30;97.80
16893;DHT22;8563;52.242;9.098;2023-04-06T04:33:04;2.20;97.60
16893;DHT22;8563;52.242;9.098;2023-04-06T04:35:36;2.20;97.90
16893;DHT22;8563;52.242;9.098;2023-04-06T04:38:09;2.20;97.60
16893;DHT22;8563;52.242;9.098;2023-04-06T04:40:46;2.20;97.70
16893;DHT22;8563;52.242;9.098;2023-04-06T04:43:18;2.20;97.60
16893;DHT22;8563;52.242;9.098;2023-04-06T04:45:51;2.20;97.70
16893;DHT22;8563;52.242;9.098;2023-04-06T04:48:36;2.30;97.60
16893;DHT22;8563;52.242;9.098;2023-04-06T04:51:11;2.30;97.70
16893;DHT22;8563;52.242;9.098;2023-04-06T04:53:56;2.30;97.60
16893;DHT22;8563;52.242;9.098;2023-04-06T04:56:33;2.30;97.50
16893;DHT22;8563;52.242;9.098;2023-04-06T04:59:15;2.30;97.40
16893;DHT22;8563;52.242;9.098;2023-04-06T05:01:54;2.30;97.60
16893;DHT22;8563;52.242;9.098;2023-04-06T05:04:32;2.30;97.60
16893;DHT22;8563;52.242;9.098;2023-04-06T05:07:08;2.40;97.60
16893;DHT22;8563;52.242;9.098;2023-04-06T05:09:43;2.40;97.50
16893;DHT22;8563;52.242;9.098;2023-04-06T05:12:16;2.40;97.50
16893;DHT22;8563;52.242;9.098;2023-04-06T05:15:00;2.50;97.50
16893;DHT22;8563;52.242;9.098;2023-04-06T05:17:33;2.50;97.50
16893;DHT22;8563;52.242;9.098;2023-04-06T05:20:09;2.50;97.30
16893;DHT22;8563;52.242;9.098;2023-04-06T05:22:49;2.60;97.30
16893;DHT22;8563;52.242;9.098;2023-04-06T05:25:21;2.60;97.20
16893;DHT22;8563;52.242;9.098;2023-04-06T05:27:57;2.70;97.00
16893;DHT22;8563;52.242;9.098;2023-04-06T05:30:39;2.90;96.60
16893;DHT22;8563;52.242;9.098;2023-04-06T05:33:13;3.00;96.50
16893;DHT22;8563;52.242;9.098;2023-04-06T05:36:07;3.20;96.40
16893;DHT22;8563;52.242;9.098;2023-04-06T05:38:45;3.50;95.50
16893;DHT22;8563;52.242;9.098;2023-04-06T05:41:26;3.70;95.10
16893;DHT22;8563;52.242;9.098;2023-04-06T05:43:59;3.90;94.40
16893;DHT22;8563;52.242;9.098;2023-04-06T05:46:32;4.00;94.00
16893;DHT22;8563;52.242;9.098;2023-04-06T05:49:05;4.30;93.90
16893;DHT22;8563;52.242;9.098;2023-04-06T05:51:39;4.40;93.40
16893;DHT22;8563;52.242;9.098;2023-04-06T05:54:12;4.60;93.20
16893;DHT22;8563;52.242;9.098;2023-04-06T05:56:45;4.70;92.50
16893;DHT22;8563;52.242;9.098;2023-04-06T05:59:17;4.90;92.10
16893;DHT22;8563;52.242;9.098;2023-04-06T06:01:51;5.00;91.90
16893;DHT22;8563;52.242;9.098;2023-04-06T06:04:24;5.20;91.70
16893;DHT22;8563;52.242;9.098;2023-04-06T06:07:00;5.40;91.10
16893;DHT22;8563;52.242;9.098;2023-04-06T06:09:47;5.80;90.30
16893;DHT22;8563;52.242;9.098;2023-04-06T06:12:30;6.20;89.10
16893;DHT22;8563;52.242;9.098;2023-04-06T06:15:05;6.40;87.10
16893;DHT22;8563;52.242;9.098;2023-04-06T06:17:42;6.40;87.00
16893;DHT22;8563;52.242;9.098;2023-04-06T06:20:16;6.50;86.80
16893;DHT22;8563;52.242;9.098;2023-04-06T06:22:50;6.40;86.00
16893;DHT22;8563;52.242;9.098;2023-04-06T06:25:25;6.40;86.30
16893;DHT22;8563;52.242;9.098;2023-04-06T06:27:58;6.40;85.60
16893;DHT22;8563;52.242;9.098;2023-04-06T06:30:33;6.40;86.20
16893;DHT22;8563;52.242;9.098;2023-04-06T06:33:06;6.40;86.10
16893;DHT22;8563;52.242;9.098;2023-04-06T06:35:39;6.40;86.80
16893;DHT22;8563;52.242;9.098;2023-04-06T06:38:12;6.40;86.00
16893;DHT22;8563;52.242;9.098;2023-04-06T06:40:45;6.40;85.50
16893;DHT22;8563;52.242;9.098;2023-04-06T06:43:18;6.40;85.50
16893;DHT22;8563;52.242;9.098;2023-04-06T06:45:57;6.40;84.90
16893;DHT22;8563;52.242;9.098;2023-04-06T06:48:29;6.60;85.30
16893;DHT22;8563;52.242;9.098;2023-04-06T06:51:01;6.60;85.00
16893;DHT22;8563;52.242;9.098;2023-04-06T06:53:35;6.60;84.10
16893;DHT22;8563;52.242;9.098;2023-04-06T06:56:08;6.60;84.00
16893;DHT22;8563;52.242;9.098;2023-04-06T06:58:41;6.60;84.50
16893;DHT22;8563;52.242;9.098;2023-04-06T07:01:13;6.50;84.10
16893;DHT22;8563;52.242;9.098;2023-04-06T07:03:47;6.50;85.00
16893;DHT22;8563;52.242;9.098;2023-04-06T07:06:20;6.50;84.70
16893;DHT22;8563;52.242;9.098;2023-04-06T07:08:54;6.40;84.90
16893;DHT22;8563;52.242;9.098;2023-04-06T07:11:26;6.40;84.20
16893;DHT22;8563;52.242;9.098;2023-04-06T07:13:58;6.50;84.80
16893;DHT22;8563;52.242;9.098;2023-04-06T07:16:31;6.50;84.90
16893;DHT22;8563;52.242;9.098;2023-04-06T07:19:03;6.50;84.50
16893;DHT22;8563;52.242;9.098;2023-04-06T07:21:36;6.40;84.50
16893;DHT22;8563;52.242;9.098;2023-04-06T07:24:10;6.40;84.30
16893;DHT22;8563;52.242;9.098;2023-04-06T07:26:42;6.40;85.70
16893;DHT22;8563;52.242;9.098;2023-04-06T07:29:14;6.40;85.70
16893;DHT22;8563;52.242;9.098;2023-04-06T07:31:47;6.40;84.50
16893;DHT22;8563;52.242;9.098;2023-04-06T07:34:20;6.40;84.90
16893;DHT22;8563;52.242;9.098;2023-04-06T07:36:53;6.50;85.40
16893;DHT22;8563;52.242;9.098;2023-04-06T07:39:29;6.60;84.10
16893;DHT22;8563;52.242;9.098;2023-04-06T07:42:02;6.60;85.10
16893;DHT22;8563;52.242;9.098;2023-04-06T07:44:34;6.60;84.90
16893;DHT22;8563;52.242;9.098;2023-04-06T07:47:06;6.70;85.00
16893;DHT22;8563;52.242;9.098;2023-04-06T07:49:39;6.80;85.30
16893;DHT22;8563;52.242;9.098;2023-04-06T07:52:11;6.90;85.70
16893;DHT22;8563;52.242;9.098;2023-04-06T07:54:46;6.90;84.60
16893;DHT22;8563;52.242;9.098;2023-04-06T07:57:20;6.90;84.30
16893;DHT22;8563;52.242;9.098;2023-04-06T07:59:52;6.90;84.70
16893;DHT22;8563;52.242;9.098;2023-04-06T08:02:25;7.00;83.90
16893;DHT22;8563;52.242;9.098;2023-04-06T08:04:57;7.00;82.90
16893;DHT22;8563;52.242;9.098;2023-04-06T08:07:29;7.00;83.30
16893;DHT22;8563;52.242;9.098;2023-04-06T08:10:03;7.10;84.70
16893;DHT22;8563;52.242;9.098;2023-04-06T08:12:36;7.10;84.20
16893;DHT22;8563;52.242;9.098;2023-04-06T08:15:08;7.30;83.60
16893;DHT22;8563;52.242;9.098;2023-04-06T08:17:41;7.40;83.70
16893;DHT22;8563;52.242;9.098;2023-04-06T08:20:13;7.50;84.30
16893;DHT22;8563;52.242;9.098;2023-04-06T08:22:45;7.50;83.30
16893;DHT22;8563;52.242;9.098;2023-04-06T08:25:19;7.60;82.40
16893;DHT22;8563;52.242;9.098;2023-04-06T08:27:52;7.70;82.90
16893;DHT22;8563;52.242;9.098;2023-04-06T08:30:24;7.90;82.60
16893;DHT22;8563;52.242;9.098;2023-04-06T08:32:57;8.10;82.30
16893;DHT22;8563;52.242;9.098;2023-04-06T08:35:29;8.10;81.80
16893;DHT22;8563;52.242;9.098;2023-04-06T08:38:01;8.10;79.40
16893;DHT22;8563;52.242;9.098;2023-04-06T08:40:37;8.10;80.00
16893;DHT22;8563;52.242;9.098;2023-04-06T08:43:14;8.20;81.00
16893;DHT22;8563;52.242;9.098;2023-04-06T08:45:46;8.30;80.70
16893;DHT22;8563;52.242;9.098;2023-04-06T08:48:19;8.40;81.00
16893;DHT22;8563;52.242;9.098;2023-04-06T08:50:52;8.50;81.20
16893;DHT22;8563;52.242;9.098;2023-04-06T08:53:26;8.60;81.70
16893;DHT22;8563;52.242;9.098;2023-04-06T08:56:00;8.80;79.20
16893;DHT22;8563;52.242;9.098;2023-04-06T08:58:35;8.80;78.60
16893;DHT22;8563;52.242;9.098;2023-04-06T09:01:09;8.90;79.90
16893;DHT22;8563;52.242;9.098;2023-04-06T09:03:43;9.00;78.90
16893;DHT22;8563;52.242;9.098;2023-04-06T09:06:16;9.00;78.50
16893;DHT22;8563;52.242;9.098;2023-04-06T09:08:49;9.20;76.40
16893;DHT22;8563;52.242;9.098;2023-04-06T09:11:22;9.30;76.30
16893;DHT22;8563;52.242;9.098;2023-04-06T09:13:55;9.40;77.00
16893;DHT22;8563;52.242;9.098;2023-04-06T09:16:28;9.50;75.60
16893;DHT22;8563;52.242;9.098;2023-04-06T09:19:11;9.60;73.90
16893;DHT22;8563;52.242;9.098;2023-04-06T09:21:43;9.70;74.20
16893;DHT22;8563;52.242;9.098;2023-04-06T09:24:16;9.70;75.90
16893;DHT22;8563;52.242;9.098;2023-04-06T09:26:53;9.80;75.50
16893;DHT22;8563;52.242;9.098;2023-04-06T09:29:26;9.80;74.10
16893;DHT22;8563;52.242;9.098;2023-04-06T09:32:03;9.90;74.60
16893;DHT22;8563;52.242;9.098;2023-04-06T09:34:37;10.10;74.60
16893;DHT22;8563;52.242;9.098;2023-04-06T09:37:13;10.20;74.70
16893;DHT22;8563;52.242;9.098;2023-04-06T09:39:46;10.20;71.70
16893;DHT22;8563;52.242;9.098;2023-04-06T09:42:25;10.30;72.20
16893;DHT22;8563;52.242;9.098;2023-04-06T09:44:57;10.40;74.00
16893;DHT22;8563;52.242;9.098;2023-04-06T09:47:31;10.40;70.80
16893;DHT22;8563;52.242;9.098;2023-04-06T09:50:04;10.50;72.30
16893;DHT22;8563;52.242;9.098;2023-04-06T09:52:39;10.60;70.00
16893;DHT22;8563;52.242;9.098;2023-04-06T09:55:20;10.60;68.60
16893;DHT22;8563;52.242;9.098;2023-04-06T09:58:00;10.60;70.20
16893;DHT22;8563;52.242;9.098;2023-04-06T10:00:42;10.80;71.20
16893;DHT22;8563;52.242;9.098;2023-04-06T10:03:20;10.90;68.90
16893;DHT22;8563;52.242;9.098;2023-04-06T10:05:55;10.90;67.50
16893;DHT22;8563;52.242;9.098;2023-04-06T10:08:30;10.90;67.40
16893;DHT22;8563;52.242;9.098;2023-04-06T10:11:04;11.00;68.40
16893;DHT22;8563;52.242;9.098;2023-04-06T10:13:38;11.10;68.40
16893;DHT22;8563;52.242;9.098;2023-04-06T10:16:10;11.20;66.20
16893;DHT22;8563;52.242;9.098;2023-04-06T10:18:49;11.30;66.70
16893;DHT22;8563;52.242;9.098;2023-04-06T10:21:25;11.40;62.60
16893;DHT22;8563;52.242;9.098;2023-04-06T10:23:59;11.30;61.40
16893;DHT22;8563;52.242;9.098;2023-04-06T10:26:32;11.30;60.50
16893;DHT22;8563;52.242;9.098;2023-04-06T10:29:06;11.40;61.60
16893;DHT22;8563;52.242;9.098;2023-04-06T10:31:41;11.40;61.40
16893;DHT22;8563;52.242;9.098;2023-04-06T10:34:14;11.40;60.90
16893;DHT22;8563;52.242;9.098;2023-04-06T10:36:46;11.40;59.70
16893;DHT22;8563;52.242;9.098;2023-04-06T10:39:25;11.30;59.80
16893;DHT22;8563;52.242;9.098;2023-04-06T10:42:06;11.40;60.80
16893;DHT22;8563;52.242;9.098;2023-04-06T10:44:43;11.40;60.50
16893;DHT22;8563;52.242;9.098;2023-04-06T10:47:17;11.40;58.70
16893;DHT22;8563;52.242;9.098;2023-04-06T10:49:50;11.50;59.90
16893;DHT22;8563;52.242;9.098;2023-04-06T10:52:22;11.50;59.30
16893;DHT22;8563;52.242;9.098;2023-04-06T10:54:55;11.50;60.20
16893;DHT22;8563;52.242;9.098;2023-04-06T10:57:28;11.70;60.10
16893;DHT22;8563;52.242;9.098;2023-04-06T11:00:03;11.80;60.30
16893;DHT22;8563;52.242;9.098;2023-04-06T11:02:36;11.80;60.90
16893;DHT22;8563;52.242;9.098;2023-04-06T11:05:11;11.80;59.70
16893;DHT22;8563;52.242;9.098;2023-04-06T11:07:44;11.80;59.80
16893;DHT22;8563;52.242;9.098;2023-04-06T11:10:21;11.90;59.70
16893;DHT22;8563;52.242;9.098;2023-04-06T11:12:54;11.80;58.60
16893;DHT22;8563;52.242;9.098;2023-04-06T11:15:34;11.90;60.00
16893;DHT22;8563;52.242;9.098;2023-04-06T11:18:06;11.90;60.50
16893;DHT22;8563;52.242;9.098;2023-04-06T11:20:38;11.90;61.50
16893;DHT22;8563;52.242;9.098;2023-04-06T11:23:11;12.00;60.00
16893;DHT22;8563;52.242;9.098;2023-04-06T11:25:50;12.00;61.30
16893;DHT22;8563;52.242;9.098;2023-04-06T11:28:23;11.90;62.10
16893;DHT22;8563;52.242;9.098;2023-04-06T11:30:57;12.00;61.40
16893;DHT22;8563;52.242;9.098;2023-04-06T11:33:35;12.00;61.80
16893;DHT22;8563;52.242;9.098;2023-04-06T11:36:08;12.00;61.30
16893;DHT22;8563;52.242;9.098;2023-04-06T11:38:40;12.10;60.60
16893;DHT22;8563;52.242;9.098;2023-04-06T11:41:12;12.10;62.10
16893;DHT22;8563;52.242;9.098;2023-04-06T11:43:47;12.10;62.00
16893;DHT22;8563;52.242;9.098;2023-04-06T11:46:21;12.20;62.50
16893;DHT22;8563;52.242;9.098;2023-04-06T11:48:58;12.30;63.10
16893;DHT22;8563;52.242;9.098;2023-04-06T11:51:35;12.20;62.00
16893;DHT22;8563;52.242;9.098;2023-04-06T11:54:07;12.20;61.30
16893;DHT22;8563;52.242;9.098;2023-04-06T11:56:40;12.10;61.10
16893;DHT22;8563;52.242;9.098;2023-04-06T11:59:12;12.10;62.20
16893;DHT22;8563;52.242;9.098;2023-04-06T12:01:47;12.20;62.50
16893;DHT22;8563;52.242;9.098;2023-04-06T12:04:19;12.20;62.60
16893;DHT22;8563;52.242;9.098;2023-04-06T12:06:51;12.30;62.00
16893;DHT22;8563;52.242;9.098;2023-04-06T12:09:24;12.40;61.50
16893;DHT22;8563;52.242;9.098;2023-04-06T12:11:57;12.50;60.60
16893;DHT22;8563;52.242;9.098;2023-04-06T12:14:29;12.50;60.50
16893;DHT22;8563;52.242;9.098;2023-04-06T12:17:03;12.50;59.80
16893;DHT22;8563;52.242;9.098;2023-04-06T12:19:35;12.50;60.00
16893;DHT22;8563;52.242;9.098;2023-04-06T12:22:08;12.50;59.60
16893;DHT22;8563;52.242;9.098;2023-04-06T12:24:40;12.50;59.50
16893;DHT22;8563;52.242;9.098;2023-04-06T12:27:12;12.50;59.40
16893;DHT22;8563;52.242;9.098;2023-04-06T12:29:44;12.50;59.70
16893;DHT22;8563;52.242;9.098;2023-04-06T12:32:18;12.60;59.80
16893;DHT22;8563;52.242;9.098;2023-04-06T12:34:52;12.70;57.60
16893;DHT22;8563;52.242;9.098;2023-04-06T12:37:24;12.70;58.40
16893;DHT22;8563;52.242;9.098;2023-04-06T12:39:57;12.70;58.30
16893;DHT22;8563;52.242;9.098;2023-04-06T12:42:29;12.60;58.50
16893;DHT22;8563;52.242;9.098;2023-04-06T12:45:02;12.60;56.60
16893;DHT22;8563;52.242;9.098;2023-04-06T12:47:35;12.60;57.50
16893;DHT22;8563;52.242;9.098;2023-04-06T12:50:09;12.70;57.20
16893;DHT22;8563;52.242;9.098;2023-04-06T12:52:41;12.80;56.80
16893;DHT22;8563;52.242;9.098;2023-04-06T12:55:13;12.80;55.20
16893;DHT22;8563;52.242;9.098;2023-04-06T12:57:45;12.70;52.40
16893;DHT22;8563;52.242;9.098;2023-04-06T13:00:19;12.80;53.70
16893;DHT22;8563;52.242;9.098;2023-04-06T13:02:53;12.80;53.50
16893;DHT22;8563;52.242;9.098;2023-04-06T13:05:25;12.80;54.70
16893;DHT22;8563;52.242;9.098;2023-04-06T13:07:57;12.80;54.80
16893;DHT22;8563;52.242;9.098;2023-04-06T13:10:30;12.80;55.80
16893;DHT22;8563;52.242;9.098;2023-04-06T13:13:02;12.80;54.70
16893;DHT22;8563;52.242;9.098;2023-04-06T13:15:34;12.80;54.50
16893;DHT22;8563;52.242;9.098;2023-04-06T13:18:08;12.70;54.50
16893;DHT22;8563;52.242;9.098;2023-04-06T13:20:41;12.80;56.10
16893;DHT22;8563;52.242;9.098;2023-04-06T13:23:14;12.80;56.10
16893;DHT22;8563;52.242;9.098;2023-04-06T13:25:46;12.90;56.00
16893;DHT22;8563;52.242;9.098;2023-04-06T13:28:18;13.00;55.40
16893;DHT22;8563;52.242;9.098;2023-04-06T13:30:51;13.00;56.20
16893;DHT22;8563;52.242;9.098;2023-04-06T13:33:25;13.00;54.80
16893;DHT22;8563;52.242;9.098;2023-04-06T13:35:57;13.00;56.10
16893;DHT22;8563;52.242;9.098;2023-04-06T13:38:30;13.00;56.20
16893;DHT22;8563;52.242;9.098;2023-04-06T13:41:04;12.90;57.00
16893;DHT22;8563;52.242;9.098;2023-04-06T13:43:36;13.00;57.50
16893;DHT22;8563;52.242;9.098;2023-04-06T13:46:08;13.00;56.80
16893;DHT22;8563;52.242;9.098;2023-04-06T13:48:42;13.00;56.60
16893;DHT22;8563;52.242;9.098;2023-04-06T13:51:14;13.10;56.90
16893;DHT22;8563;52.242;9.098;2023-04-06T13:53:47;13.00;56.40
16893;DHT22;8563;52.242;9.098;2023-04-06T13:56:23;13.10;57.90
16893;DHT22;8563;52.242;9.098;2023-04-06T13:58:56;13.10;56.50
16893;DHT22;8563;52.242;9.098;2023-04-06T14:01:29;13.10;57.20
16893;DHT22;8563;52.242;9.098;2023-04-06T14:04:03;13.10;56.80
16893;DHT22;8563;52.242;9.098;2023-04-06T14:06:36;13.10;56.30
16893;DHT22;8563;52.242;9.098;2023-04-06T14:09:08;13.10;55.80
16893;DHT22;8563;52.242;9.098;2023-04-06T14:11:41;13.10;56.50
16893;DHT22;8563;52.242;9.098;2023-04-06T14:14:14;13.10;57.20
16893;DHT22;8563;52.242;9.098;2023-04-06T14:16:46;13.10;55.60
16893;DHT22;8563;52.242;9.098;2023-04-06T14:19:20;13.10;56.50
16893;DHT22;8563;52.242;9.098;2023-04-06T14:21:52;13.20;56.20
16893;DHT22;8563;52.242;9.098;2023-04-06T14:24:25;13.20;57.70
16893;DHT22;8563;52.242;9.098;2023-04-06T14:26:57;13.30;56.30
16893;DHT22;8563;52.242;9.098;2023-04-06T14:29:29;13.30;56.50
16893;DHT22;8563;52.242;9.098;2023-04-06T14:32:01;13.20;55.80
16893;DHT22;8563;52.242;9.098;2023-04-06T14:34:37;13.10;55.90
16893;DHT22;8563;52.242;9.098;2023-04-06T14:37:09;13.10;56.60
16893;DHT22;8563;52.242;9.098;2023-04-06T14:39:41;13.10;56.50
16893;DHT22;8563;52.242;9.098;2023-04-06T14:42:13;13.10;56.10
16893;DHT22;8563;52.242;9.098;2023-04-06T14:44:45;13.10;55.30
16893;DHT22;8563;52.242;9.098;2023-04-06T14:47:19;13.00;56.60
16893;DHT22;8563;52.242;9.098;2023-04-06T14:49:53;13.10;56.90
16893;DHT22;8563;52.242;9.098;2023-04-06T14:52:25;13.10;57.20
16893;DHT22;8563;52.242;9.098;2023-04-06T14:54:57;13.10;56.60
16893;DHT22;8563;52.242;9.098;2023-04-06T14:57:29;13.00;56.60
16893;DHT22;8563;52.242;9.098;2023-04-06T15:00:02;12.90;56.70
16893;DHT22;8563;52.242;9.098;2023-04-06T15:02:34;12.80;57.40
16893;DHT22;8563;52.242;9.098;2023-04-06T15:05:09;12.80;56.90
16893;DHT22;8563;52.242;9.098;2023-04-06T15:07:41;12.80;57.60
16893;DHT22;8563;52.242;9.098;2023-04-06T15:10:14;12.80;58.10
16893;DHT22;8563;52.242;9.098;2023-04-06T15:12:46;12.80;56.90
16893;DHT22;8563;52.242;9.098;2023-04-06T15:15:19;12.80;57.70
16893;DHT22;8563;52.242;9.098;2023-04-06T15:17:51;12.80;57.00
16893;DHT22;8563;52.242;9.098;2023-04-06T15:20:25;12.80;56.70
16893;DHT22;8563;52.242;9.098;2023-04-06T15:22:57;12.80;57.70
16893;DHT22;8563;52.242;9.098;2023-04-06T15:25:30;12.90;57.50
16893;DHT22;8563;52.242;9.098;2023-04-06T15:28:02;13.00;57.40
16893;DHT22;8563;52.242;9.098;2023-04-06T15:30:34;12.90;57.40
16893;DHT22;8563;52.242;9.098;2023-04-06T15:33:07;12.90;56.60
16893;DHT22;8563;52.242;9.098;2023-04-06T15:35:42;12.80;57.70
16893;DHT22;8563;52.242;9.098;2023-04-06T15:38:14;12.80;58.80
16893;DHT22;8563;52.242;9.098;2023-04-06T15:40:48;12.70;58.80
16893;DHT22;8563;52.242;9.098;2023-04-06T15:43:20;12.70;57.60
16893;DHT22;8563;52.242;9.098;2023-04-06T15:45:52;12.70;57.90
16893;DHT22;8563;52.242;9.098;2023-04-06T15:48:24;12.70;58.10
16893;DHT22;8563;52.242;9.098;2023-04-06T15:50:58;12.60;57.50
16893;DHT22;8563;52.242;9.098;2023-04-06T15:53:30;12.60;57.50
16893;DHT22;8563;52.242;9.098;2023-04-06T15:56:03;12.50;58.00
16893;DHT22;8563;52.242;9.098;2023-04-06T15:58:36;12.50;58.60
16893;DHT22;8563;52.242;9.098;2023-04-06T16:01:12;12.50;58.70
16893;DHT22;8563;52.242;9.098;2023-04-06T16:03:45;12.50;58.50
16893;DHT22;8563;52.242;9.098;2023-04-06T16:06:18;12.50;58.70
16893;DHT22;8563;52.242;9.098;2023-04-06T16:08:51;12.50;58.30
16893;DHT22;8563;52.242;9.098;2023-04-06T16:11:23;12.50;58.70
16893;DHT22;8563;52.242;9.098;2023-04-06T16:13:55;12.50;58.50
16893;DHT22;8563;52.242;9.098;2023-04-06T16:16:27;12.50;59.20
16893;DHT22;8563;52.242;9.098;2023-04-06T16:19:00;12.50;59.50
16893;DHT22;8563;52.242;9.098;2023-04-06T16:21:33;12.50;59.40
16893;DHT22;8563;52.242;9.098;2023-04-06T16:24:06;12.40;60.00
16893;DHT22;8563;52.242;9.098;2023-04-06T16:26:38;12.40;59.30
16893;DHT22;8563;52.242;9.098;2023-04-06T16:29:10;12.40;59.70
16893;DHT22;8563;52.242;9.098;2023-04-06T16:31:43;12.30;60.10
16893;DHT22;8563;52.242;9.098;2023-04-06T16:34:17;12.30;60.30
16893;DHT22;8563;52.242;9.098;2023-04-06T16:36:50;12.30;59.90
16893;DHT22;8563;52.242;9.098;2023-04-06T16:39:22;12.30;60.10
16893;DHT22;8563;52.242;9.098;2023-04-06T16:41:55;12.30;59.30